Time;durP1;ratioP1;P1;durP2;ratioP2;P2;SDS_P1;SDS_P2;PMS_P1;PMS_P2;Temp;Humidity;BMP_temperature;BMP_pressure;BME280_temperature;BME280_humidity;BME280_pressure;Samples;Min_cycle;Max_cycle;Signal;HPM_P1;HPM_P2
2021/12/20 00:00:07;;;;;;;20.57;4.67;;;;;;;;;;5071606;28;20515;-58
2021/12/20 00:02:33;;;;;;;24.13;6.23;;;;;;;;;;5072730;28;20211;-59
2021/12/20 00:05:04;;;;;;;22.70;5.60;;;;;;;;;;5072047;28;20462;-58
2021/12/20 00:07:30;;;;;;;24.83;8.20;;;;;;;;;;5068078;28;20449;-58
2021/12/20 00:09:56;;;;;;;26.60;10.77;;;;;;;;;;5071815;28;20450;-58
2021/12/20 00:12:23;;;;;;;19.13;7.70;;;;;;;;;;5071853;28;20491;-58
2021/12/20 00:14:49;;;;;;;27.43;7.43;;;;;;;;;;5071951;28;20594;-57
2021/12/20 00:17:15;;;;;;;18.27;4.90;;;;;;;;;;5072390;28;20495;-57
2021/12/20 00:19:41;;;;;;;21.10;4.80;;;;;;;;;;5071873;28;20274;-57
2021/12/20 00:22:07;;;;;;;21.17;5.60;;;;;;;;;;5072249;28;20873;-59
2021/12/20 00:24:33;;;;;;;20.70;4.77;;;;;;;;;;5072292;28;20202;-59
2021/12/20 00:27:02;;;;;;;21.70;5.50;;;;;;;;;;5071734;28;20191;-58
2021/12/20 00:29:29;;;;;;;19.97;4.77;;;;;;;;;;5072038;28;20451;-59
2021/12/20 00:31:55;;;;;;;27.83;5.60;;;;;;;;;;5071970;28;20513;-58
2021/12/20 00:34:21;;;;;;;19.03;4.10;;;;;;;;;;5072222;28;20553;-57
2021/12/20 00:36:56;;;;;;;21.50;5.17;;;;;;;;;;5070014;28;20191;-58
2021/12/20 00:42:07;;;;;;;25.33;5.63;;;;;;;;;;5071410;28;20433;-56
2021/12/20 00:44:34;;;;;;;18.53;5.17;;;;;;;;;;5071808;28;20492;-55
2021/12/20 00:47:00;;;;;;;23.07;5.13;;;;;;;;;;5075262;28;20438;-56
2021/12/20 00:49:28;;;;;;;17.70;4.90;;;;;;;;;;5075391;28;20467;-57
2021/12/20 00:51:54;;;;;;;20.67;5.00;;;;;;;;;;5075651;28;20274;-56
2021/12/20 00:54:20;;;;;;;16.77;4.63;;;;;;;;;;5075762;28;20906;-57
2021/12/20 00:56:46;;;;;;;19.77;5.03;;;;;;;;;;5075524;28;20429;-58
2021/12/20 00:59:12;;;;;;;15.77;4.53;;;;;;;;;;5075741;28;20325;-57
2021/12/20 01:01:39;;;;;;;18.53;5.50;;;;;;;;;;5075474;28;21074;-56
2021/12/20 01:04:05;;;;;;;20.48;5.00;;;;;;;;;;5075217;28;20425;-56
2021/12/20 01:06:31;;;;;;;18.27;3.97;;;;;;;;;;5075326;28;20224;-57
2021/12/20 01:08:57;;;;;;;17.07;4.47;;;;;;;;;;5075403;28;20441;-56
2021/12/20 01:11:26;;;;;;;16.70;5.00;;;;;;;;;;5075501;28;20517;-57
2021/12/20 01:13:53;;;;;;;13.63;4.13;;;;;;;;;;5075344;28;20230;-56
2021/12/20 01:16:29;;;;;;;17.07;4.37;;;;;;;;;;5071251;28;20486;-56
2021/12/20 01:18:56;;;;;;;17.07;5.17;;;;;;;;;;5075374;28;20544;-56
2021/12/20 01:21:22;;;;;;;14.00;4.37;;;;;;;;;;5074999;28;20844;-55
2021/12/20 01:23:48;;;;;;;14.33;5.03;;;;;;;;;;5075111;28;20442;-57
2021/12/20 01:26:14;;;;;;;23.10;4.87;;;;;;;;;;5075282;28;20442;-56
2021/12/20 01:28:43;;;;;;;16.90;5.40;;;;;;;;;;5075180;28;20196;-57
2021/12/20 01:31:09;;;;;;;18.77;5.57;;;;;;;;;;5075099;28;20210;-56
2021/12/20 01:33:35;;;;;;;18.00;4.70;;;;;;;;;;5075104;28;20438;-57
2021/12/20 01:36:02;;;;;;;13.30;4.30;;;;;;;;;;5075110;28;20240;-56
2021/12/20 01:38:29;;;;;;;17.50;5.07;;;;;;;;;;5074814;28;20549;-56
2021/12/20 01:40:55;;;;;;;18.73;5.43;;;;;;;;;;5073752;28;20576;-56
2021/12/20 01:43:24;;;;;;;18.53;5.97;;;;;;;;;;5073801;28;20425;-57
2021/12/20 01:45:50;;;;;;;15.97;5.30;;;;;;;;;;5073740;28;20438;-56
2021/12/20 01:48:19;;;;;;;23.77;6.27;;;;;;;;;;5073667;28;20438;-57
2021/12/20 01:53:14;;;;;;;20.10;5.30;;;;;;;;;;5073663;28;20429;-56
2021/12/20 01:55:40;;;;;;;17.90;5.50;;;;;;;;;;5073598;28;20434;-56
2021/12/20 01:58:06;;;;;;;18.70;5.93;;;;;;;;;;5073218;28;20436;-56
2021/12/20 02:00:34;;;;;;;16.23;5.07;;;;;;;;;;5073533;28;20466;-55
2021/12/20 02:03:02;;;;;;;14.03;5.07;;;;;;;;;;5073484;28;20441;-56
2021/12/20 02:05:47;;;;;;;11.07;4.50;;;;;;;;;;5073323;28;21007;-57
2021/12/20 02:08:21;;;;;;;19.47;5.47;;;;;;;;;;5073541;28;20529;-56
2021/12/20 02:10:47;;;;;;;17.13;6.00;;;;;;;;;;5073323;28;20440;-55
2021/12/20 02:13:14;;;;;;;12.73;5.17;;;;;;;;;;5073283;28;20430;-57
2021/12/20 02:15:40;;;;;;;18.33;4.67;;;;;;;;;;5073087;28;20857;-56
2021/12/20 02:18:06;;;;;;;25.90;5.40;;;;;;;;;;5073195;28;20426;-55
2021/12/20 02:20:35;;;;;;;26.93;6.77;;;;;;;;;;5073249;28;20474;-55
2021/12/20 02:23:01;;;;;;;17.60;5.07;;;;;;;;;;5073189;28;20541;-57
2021/12/20 02:25:28;;;;;;;22.50;5.13;;;;;;;;;;5073168;28;20446;-55
2021/12/20 02:27:55;;;;;;;16.43;4.63;;;;;;;;;;5072941;28;20516;-56
2021/12/20 02:38:34;;;;;;;16.10;5.20;;;;;;;;;;5021403;28;1010881;-56
2021/12/20 02:41:04;;;;;;;12.67;4.40;;;;;;;;;;5073928;28;20306;-56
2021/12/20 02:43:34;;;;;;;11.17;4.70;;;;;;;;;;5073887;28;20434;-56
2021/12/20 02:46:03;;;;;;;16.97;4.87;;;;;;;;;;5073854;28;20442;-56
2021/12/20 02:48:29;;;;;;;13.93;4.97;;;;;;;;;;5073885;28;20497;-56
2021/12/20 02:50:59;;;;;;;17.10;5.10;;;;;;;;;;5073579;28;20904;-56
2021/12/20 02:53:25;;;;;;;20.67;6.37;;;;;;;;;;5073769;28;20539;-56
2021/12/20 02:55:51;;;;;;;23.97;6.17;;;;;;;;;;5073667;28;20545;-56
2021/12/20 02:58:17;;;;;;;18.70;5.80;;;;;;;;;;5073448;28;20191;-56
2021/12/20 03:00:43;;;;;;;19.53;5.20;;;;;;;;;;5073520;28;20465;-57
2021/12/20 03:03:10;;;;;;;23.07;6.13;;;;;;;;;;5073590;28;20205;-56
2021/12/20 03:05:36;;;;;;;19.80;5.93;;;;;;;;;;5073137;28;20676;-56
2021/12/20 03:08:04;;;;;;;24.87;6.73;;;;;;;;;;5072551;28;20438;-55
2021/12/20 03:10:31;;;;;;;27.23;7.00;;;;;;;;;;5073453;28;20446;-56
2021/12/20 03:12:57;;;;;;;28.87;7.13;;;;;;;;;;5073181;28;20509;-57
2021/12/20 03:15:26;;;;;;;25.90;7.00;;;;;;;;;;5073331;28;20431;-57
2021/12/20 03:17:54;;;;;;;29.57;7.93;;;;;;;;;;5073045;28;20434;-56
2021/12/20 03:20:21;;;;;;;28.70;6.13;;;;;;;;;;5073076;28;20505;-57
2021/12/20 03:22:47;;;;;;;19.70;5.10;;;;;;;;;;5072893;28;20476;-56
2021/12/20 03:25:15;;;;;;;20.50;6.00;;;;;;;;;;5073047;28;20433;-55
2021/12/20 03:27:41;;;;;;;20.03;5.67;;;;;;;;;;5072874;28;20442;-56
2021/12/20 03:30:08;;;;;;;11.97;5.07;;;;;;;;;;5072851;28;20436;-56
2021/12/20 03:32:34;;;;;;;19.63;5.47;;;;;;;;;;5072596;28;20978;-55
2021/12/20 03:35:00;;;;;;;14.73;4.63;;;;;;;;;;5072694;28;20465;-56
2021/12/20 03:37:26;;;;;;;14.83;4.43;;;;;;;;;;5072870;28;20199;-56
2021/12/20 03:39:52;;;;;;;18.53;5.40;;;;;;;;;;5072527;28;20572;-55
2021/12/20 03:42:20;;;;;;;11.87;4.60;;;;;;;;;;5072678;28;20220;-56
2021/12/20 03:44:46;;;;;;;19.53;5.03;;;;;;;;;;5072734;28;20203;-57
2021/12/20 03:47:12;;;;;;;13.50;4.33;;;;;;;;;;5072642;28;20850;-55
2021/12/20 03:49:39;;;;;;;14.90;4.50;;;;;;;;;;5072556;28;20810;-57
2021/12/20 03:52:05;;;;;;;14.23;4.47;;;;;;;;;;5072437;28;20433;-57
2021/12/20 03:54:31;;;;;;;11.67;4.57;;;;;;;;;;5072627;28;20438;-57
2021/12/20 03:56:57;;;;;;;12.70;4.30;;;;;;;;;;5072366;28;20433;-56
2021/12/20 03:59:24;;;;;;;10.90;5.00;;;;;;;;;;5072480;28;20954;-60
2021/12/20 04:01:51;;;;;;;16.50;4.60;;;;;;;;;;5072197;28;20702;-56
2021/12/20 04:04:17;;;;;;;14.00;4.47;;;;;;;;;;5072472;28;20425;-55
2021/12/20 04:06:43;;;;;;;12.30;4.33;;;;;;;;;;5071886;28;20472;-56
2021/12/20 04:09:09;;;;;;;13.70;4.20;;;;;;;;;;5072272;28;20430;-59
2021/12/20 04:11:35;;;;;;;12.57;4.50;;;;;;;;;;5072117;28;20438;-55
2021/12/20 04:14:01;;;;;;;14.37;4.23;;;;;;;;;;5072283;28;20202;-56
2021/12/20 04:16:29;;;;;;;10.97;4.33;;;;;;;;;;5072276;28;20199;-56
2021/12/20 04:18:55;;;;;;;11.77;3.83;;;;;;;;;;5071956;28;20437;-55
2021/12/20 04:21:21;;;;;;;14.03;4.63;;;;;;;;;;5071981;28;20566;-55
2021/12/20 04:23:47;;;;;;;12.83;4.57;;;;;;;;;;5072103;28;20509;-55
2021/12/20 04:26:13;;;;;;;10.57;4.23;;;;;;;;;;5071393;28;20426;-56
2021/12/20 04:28:40;;;;;;;11.57;4.10;;;;;;;;;;5072001;28;20434;-55
2021/12/20 04:31:06;;;;;;;10.53;3.90;;;;;;;;;;5071825;28;20430;-56
2021/12/20 04:33:33;;;;;;;12.40;4.47;;;;;;;;;;5072148;28;20805;-56
2021/12/20 04:35:59;;;;;;;13.83;5.03;;;;;;;;;;5071979;28;20445;-56
2021/12/20 04:38:27;;;;;;;13.53;4.60;;;;;;;;;;5071835;28;20426;-56
2021/12/20 04:40:53;;;;;;;12.43;5.27;;;;;;;;;;5071740;28;20592;-56
2021/12/20 04:43:19;;;;;;;13.33;5.30;;;;;;;;;;5071726;28;20507;-56
2021/12/20 04:45:45;;;;;;;14.13;5.40;;;;;;;;;;5071875;28;20433;-56
2021/12/20 04:48:11;;;;;;;12.87;5.40;;;;;;;;;;5071858;28;20196;-57
2021/12/20 04:50:39;;;;;;;10.83;5.53;;;;;;;;;;5071816;28;20460;-56
2021/12/20 04:53:05;;;;;;;15.17;5.37;;;;;;;;;;5071730;28;20495;-56
2021/12/20 04:55:31;;;;;;;14.30;5.60;;;;;;;;;;5071825;28;20449;-57
2021/12/20 04:57:58;;;;;;;14.23;6.20;;;;;;;;;;5071773;28;20434;-57
2021/12/20 05:00:25;;;;;;;17.17;6.40;;;;;;;;;;5071762;28;21179;-57
2021/12/20 05:02:51;;;;;;;10.87;5.33;;;;;;;;;;5071386;28;20495;-57
2021/12/20 05:05:18;;;;;;;16.57;5.30;;;;;;;;;;5071727;28;20948;-57
2021/12/20 05:07:46;;;;;;;16.47;5.37;;;;;;;;;;5071615;28;20183;-57
2021/12/20 05:10:24;;;;;;;15.03;5.13;;;;;;;;;;5071583;28;20943;-57
2021/12/20 05:12:50;;;;;;;11.60;4.93;;;;;;;;;;5071345;28;21015;-57
2021/12/20 05:15:16;;;;;;;10.93;5.33;;;;;;;;;;5071731;28;20458;-57
2021/12/20 05:17:42;;;;;;;12.50;5.10;;;;;;;;;;5071617;28;20226;-56
2021/12/20 05:20:08;;;;;;;12.10;5.20;;;;;;;;;;5071438;28;20448;-56
2021/12/20 05:22:34;;;;;;;10.47;4.63;;;;;;;;;;5071645;28;20204;-57
2021/12/20 05:25:01;;;;;;;9.07;4.30;;;;;;;;;;5071499;28;20458;-57
2021/12/20 05:27:27;;;;;;;7.93;4.23;;;;;;;;;;5071585;28;20203;-57
2021/12/20 05:29:54;;;;;;;11.27;4.50;;;;;;;;;;5071509;28;20441;-56
2021/12/20 05:32:20;;;;;;;14.27;4.77;;;;;;;;;;5073623;28;20188;-57
2021/12/20 05:34:46;;;;;;;8.07;5.37;;;;;;;;;;5075216;28;20487;-56
2021/12/20 05:37:13;;;;;;;15.67;7.07;;;;;;;;;;5075238;28;20206;-56
2021/12/20 05:39:40;;;;;;;14.57;6.80;;;;;;;;;;5074876;28;20481;-54
2021/12/20 05:42:07;;;;;;;29.30;15.17;;;;;;;;;;5074776;28;20510;-57
2021/12/20 05:44:33;;;;;;;26.17;11.57;;;;;;;;;;5075069;28;20434;-57
2021/12/20 05:46:59;;;;;;;21.33;9.10;;;;;;;;;;5074936;28;20438;-56
2021/12/20 05:49:25;;;;;;;12.73;6.03;;;;;;;;;;5074841;28;20433;-56
2021/12/20 05:51:51;;;;;;;9.87;4.53;;;;;;;;;;5074742;28;20223;-56
2021/12/20 05:54:17;;;;;;;9.90;4.77;;;;;;;;;;5074766;28;20194;-56
2021/12/20 05:56:43;;;;;;;11.33;5.13;;;;;;;;;;5074768;28;20206;-56
2021/12/20 05:59:11;;;;;;;9.03;4.23;;;;;;;;;;5074553;28;20430;-56
2021/12/20 06:01:37;;;;;;;11.27;4.50;;;;;;;;;;5074504;28;20223;-56
2021/12/20 06:04:03;;;;;;;14.93;5.93;;;;;;;;;;5074416;28;20483;-56
2021/12/20 06:06:31;;;;;;;14.70;6.50;;;;;;;;;;5074246;28;20964;-56
2021/12/20 06:08:57;;;;;;;22.20;10.90;;;;;;;;;;5074230;28;20433;-56
2021/12/20 06:11:24;;;;;;;14.73;7.93;;;;;;;;;;5074124;28;20438;-57
2021/12/20 06:13:50;;;;;;;11.20;5.90;;;;;;;;;;5074078;28;20236;-57
2021/12/20 06:16:17;;;;;;;10.57;6.30;;;;;;;;;;5074366;28;20438;-56
2021/12/20 06:18:44;;;;;;;11.87;6.60;;;;;;;;;;5074272;28;20774;-56
2021/12/20 06:21:10;;;;;;;13.47;5.20;;;;;;;;;;5073952;28;20489;-56
2021/12/20 06:23:36;;;;;;;8.03;5.37;;;;;;;;;;5074058;28;20524;-56
2021/12/20 06:26:02;;;;;;;7.17;4.80;;;;;;;;;;5072615;28;20628;-56
2021/12/20 06:28:29;;;;;;;6.97;4.80;;;;;;;;;;5073969;28;20267;-56
2021/12/20 06:30:55;;;;;;;8.80;4.57;;;;;;;;;;5073761;28;20896;-57
2021/12/20 06:33:22;;;;;;;14.27;4.23;;;;;;;;;;5073834;28;20784;-56
2021/12/20 06:35:48;;;;;;;8.53;5.83;;;;;;;;;;5073740;28;20442;-56
2021/12/20 06:38:20;;;;;;;13.20;7.00;;;;;;;;;;5073399;28;20436;-58
2021/12/20 06:40:46;;;;;;;8.93;4.60;;;;;;;;;;5073759;28;20528;-57
2021/12/20 06:43:12;;;;;;;9.17;4.10;;;;;;;;;;5072400;28;20456;-56
2021/12/20 06:45:39;;;;;;;5.63;3.83;;;;;;;;;;5073708;28;20442;-57
2021/12/20 06:48:05;;;;;;;9.00;4.70;;;;;;;;;;5073564;28;20437;-56
2021/12/20 06:50:33;;;;;;;8.73;4.63;;;;;;;;;;5073650;28;20457;-56
2021/12/20 06:52:59;;;;;;;8.30;4.90;;;;;;;;;;5073349;28;20437;-56
2021/12/20 06:55:25;;;;;;;9.83;4.53;;;;;;;;;;5073339;28;20448;-56
2021/12/20 06:57:51;;;;;;;7.47;4.53;;;;;;;;;;5073265;28;20500;-56
2021/12/20 07:00:17;;;;;;;7.70;5.60;;;;;;;;;;5073419;28;20438;-56
2021/12/20 07:02:43;;;;;;;11.17;5.10;;;;;;;;;;5073369;28;20434;-56
2021/12/20 07:05:09;;;;;;;7.47;5.23;;;;;;;;;;5073075;28;20740;-56
2021/12/20 07:07:37;;;;;;;9.60;5.10;;;;;;;;;;5073172;28;20952;-56
2021/12/20 07:10:03;;;;;;;8.70;5.43;;;;;;;;;;5073084;28;20954;-57
2021/12/20 07:12:30;;;;;;;11.90;6.10;;;;;;;;;;5072972;28;20940;-56
2021/12/20 07:14:56;;;;;;;11.97;5.87;;;;;;;;;;5072615;28;20507;-56
2021/12/20 07:17:22;;;;;;;10.97;6.27;;;;;;;;;;5056170;28;20435;-56
2021/12/20 07:19:48;;;;;;;9.90;6.37;;;;;;;;;;5053050;28;20431;-56
2021/12/20 07:22:14;;;;;;;12.13;6.57;;;;;;;;;;5070830;28;20876;-56
2021/12/20 07:24:41;;;;;;;11.93;6.57;;;;;;;;;;5073001;28;20196;-56
2021/12/20 07:27:08;;;;;;;8.73;6.07;;;;;;;;;;5055061;28;20250;-56
2021/12/20 07:29:34;;;;;;;12.43;7.00;;;;;;;;;;5052870;28;20929;-54
2021/12/20 07:32:00;;;;;;;18.27;10.93;;;;;;;;;;5060575;28;20469;-55
2021/12/20 07:34:26;;;;;;;15.87;9.10;;;;;;;;;;5052328;28;20518;-56
2021/12/20 07:36:53;;;;;;;10.13;7.90;;;;;;;;;;5052705;28;20192;-56
2021/12/20 07:39:19;;;;;;;9.60;6.07;;;;;;;;;;5052652;28;20327;-56
2021/12/20 07:41:46;;;;;;;11.27;6.50;;;;;;;;;;5052682;28;20566;-56
2021/12/20 07:44:12;;;;;;;10.07;6.53;;;;;;;;;;5052441;28;20200;-56
2021/12/20 07:46:38;;;;;;;11.67;6.93;;;;;;;;;;5052594;28;20451;-56
2021/12/20 07:49:05;;;;;;;13.97;8.77;;;;;;;;;;5048965;28;20430;-56
2021/12/20 07:51:31;;;;;;;9.20;6.80;;;;;;;;;;5050891;28;20868;-56
2021/12/20 07:53:57;;;;;;;9.43;6.50;;;;;;;;;;5051499;28;20458;-56
2021/12/20 07:56:23;;;;;;;10.03;6.87;;;;;;;;;;5052199;28;20257;-56
2021/12/20 07:58:50;;;;;;;9.90;6.10;;;;;;;;;;5052366;28;20220;-56
2021/12/20 08:01:17;;;;;;;9.53;6.23;;;;;;;;;;5052338;28;20561;-56
2021/12/20 08:03:43;;;;;;;10.13;6.60;;;;;;;;;;5052450;28;20481;-56
2021/12/20 08:06:09;;;;;;;8.90;6.23;;;;;;;;;;5052093;28;20463;-56
2021/12/20 08:08:35;;;;;;;12.60;6.53;;;;;;;;;;5052214;28;20439;-56
2021/12/20 08:11:01;;;;;;;12.03;6.57;;;;;;;;;;5052117;28;20438;-56
2021/12/20 08:13:27;;;;;;;8.27;5.43;;;;;;;;;;5052061;28;20920;-56
2021/12/20 08:15:54;;;;;;;10.70;6.60;;;;;;;;;;5052134;28;20443;-56
2021/12/20 08:18:21;;;;;;;9.20;6.90;;;;;;;;;;5052065;28;20438;-55
2021/12/20 08:20:47;;;;;;;11.17;7.63;;;;;;;;;;5052168;28;20467;-56
2021/12/20 08:23:13;;;;;;;8.87;7.07;;;;;;;;;;5052110;28;20430;-56
2021/12/20 08:25:39;;;;;;;11.17;7.73;;;;;;;;;;5051604;28;20933;-56
2021/12/20 08:28:06;;;;;;;9.03;6.37;;;;;;;;;;5051970;28;20455;-56
2021/12/20 08:30:32;;;;;;;7.73;5.60;;;;;;;;;;5052016;28;20957;-55
2021/12/20 08:33:00;;;;;;;6.83;5.00;;;;;;;;;;5051902;28;20486;-54
2021/12/20 08:35:26;;;;;;;6.47;4.70;;;;;;;;;;5052058;28;20461;-54
2021/12/20 08:37:53;;;;;;;6.77;5.23;;;;;;;;;;5051990;28;20473;-54
2021/12/20 08:40:20;;;;;;;7.17;4.90;;;;;;;;;;5051785;28;20504;-54
2021/12/20 08:42:46;;;;;;;7.73;4.87;;;;;;;;;;5051757;28;20941;-54
2021/12/20 08:45:14;;;;;;;8.83;5.27;;;;;;;;;;5051819;28;20442;-55
2021/12/20 08:47:40;;;;;;;7.87;5.57;;;;;;;;;;5051911;28;20477;-53
2021/12/20 08:50:10;;;;;;;8.10;5.63;;;;;;;;;;5051713;28;20434;-57
2021/12/20 08:52:36;;;;;;;8.83;5.23;;;;;;;;;;5051693;28;20208;-58
2021/12/20 08:55:02;;;;;;;6.45;5.10;;;;;;;;;;5050432;28;20523;-67
2021/12/20 08:57:28;;;;;;;6.87;4.23;;;;;;;;;;5051943;28;20211;-62
2021/12/20 08:59:54;;;;;;;6.17;4.10;;;;;;;;;;5051661;28;20792;-62
2021/12/20 09:02:20;;;;;;;4.87;3.97;;;;;;;;;;5053693;28;20227;-55
2021/12/20 09:04:46;;;;;;;6.77;4.27;;;;;;;;;;5068514;28;20199;-54
2021/12/20 09:07:16;;;;;;;3.77;3.40;;;;;;;;;;5073550;28;20221;-55
2021/12/20 09:09:44;;;;;;;5.80;3.87;;;;;;;;;;5075485;28;20203;-54
2021/12/20 09:12:10;;;;;;;3.50;3.03;;;;;;;;;;5075532;28;20661;-57
2021/12/20 09:14:37;;;;;;;5.53;3.70;;;;;;;;;;5075597;28;20192;-58
2021/12/20 09:17:04;;;;;;;3.53;2.90;;;;;;;;;;5062850;28;20199;-63
2021/12/20 09:19:30;;;;;;;3.70;3.30;;;;;;;;;;5055564;28;20200;-62
2021/12/20 09:21:56;;;;;;;4.97;3.10;;;;;;;;;;5055208;28;20244;-64
2021/12/20 09:24:24;;;;;;;3.97;3.40;;;;;;;;;;5055469;28;20253;-62
2021/12/20 09:26:50;;;;;;;4.00;3.50;;;;;;;;;;5055415;28;20585;-62
2021/12/20 09:29:16;;;;;;;4.20;3.67;;;;;;;;;;5055295;28;20203;-61
2021/12/20 09:31:42;;;;;;;6.10;4.00;;;;;;;;;;5055348;28;20283;-62
2021/12/20 09:34:08;;;;;;;5.07;3.60;;;;;;;;;;5055202;28;20201;-62
2021/12/20 09:36:34;;;;;;;6.47;4.30;;;;;;;;;;5053318;28;20202;-60
2021/12/20 09:39:01;;;;;;;5.37;4.70;;;;;;;;;;5052951;28;20232;-62
2021/12/20 09:44:01;;;;;;;6.87;4.10;;;;;;;;;;5055158;28;20208;-63
2021/12/20 09:46:28;;;;;;;4.63;3.83;;;;;;;;;;5055189;28;20223;-62
2021/12/20 09:48:54;;;;;;;7.50;3.93;;;;;;;;;;5055125;28;20200;-62
2021/12/20 09:51:20;;;;;;;6.27;3.80;;;;;;;;;;5055116;28;20257;-62
2021/12/20 09:53:46;;;;;;;4.83;3.13;;;;;;;;;;5054793;28;20674;-62
2021/12/20 09:56:13;;;;;;;6.13;3.50;;;;;;;;;;5054695;28;20215;-63
2021/12/20 09:58:42;;;;;;;6.37;3.80;;;;;;;;;;5054926;28;20193;-62
2021/12/20 10:01:12;;;;;;;7.33;4.30;;;;;;;;;;5054352;28;20304;-63
2021/12/20 10:03:38;;;;;;;5.93;3.97;;;;;;;;;;5054831;28;20212;-62
2021/12/20 10:06:05;;;;;;;4.83;3.77;;;;;;;;;;5054535;28;20226;-64
2021/12/20 10:08:37;;;;;;;4.57;3.77;;;;;;;;;;5054729;28;20789;-63
2021/12/20 10:11:04;;;;;;;4.07;3.53;;;;;;;;;;5054633;28;20693;-62
2021/12/20 10:13:31;;;;;;;5.23;4.10;;;;;;;;;;5054701;28;20892;-63
2021/12/20 10:15:59;;;;;;;4.67;3.90;;;;;;;;;;5053878;28;20288;-63
2021/12/20 10:18:26;;;;;;;6.83;4.00;;;;;;;;;;5053841;28;20561;-62
2021/12/20 10:20:53;;;;;;;4.83;3.90;;;;;;;;;;5054451;28;20217;-62
2021/12/20 10:23:20;;;;;;;5.87;3.60;;;;;;;;;;5054287;28;20240;-62
2021/12/20 10:25:47;;;;;;;5.27;3.50;;;;;;;;;;5054186;28;20603;-62
2021/12/20 10:28:14;;;;;;;5.97;3.80;;;;;;;;;;5054277;28;20289;-64
2021/12/20 10:30:41;;;;;;;5.57;3.50;;;;;;;;;;5054139;28;20214;-63
2021/12/20 10:33:11;;;;;;;4.60;3.37;;;;;;;;;;5054175;28;20649;-62
2021/12/20 10:35:39;;;;;;;5.27;3.73;;;;;;;;;;5054338;28;20204;-64
2021/12/20 10:38:06;;;;;;;5.40;4.07;;;;;;;;;;5054037;28;20197;-64
2021/12/20 10:40:32;;;;;;;5.77;3.47;;;;;;;;;;5053866;28;20235;-61
2021/12/20 10:43:00;;;;;;;4.93;3.73;;;;;;;;;;5053893;28;20756;-63
2021/12/20 10:45:27;;;;;;;4.80;4.00;;;;;;;;;;5054081;28;20223;-61
2021/12/20 10:47:53;;;;;;;5.03;3.63;;;;;;;;;;5053733;28;20208;-61
2021/12/20 10:50:21;;;;;;;4.70;3.77;;;;;;;;;;5053837;28;20208;-61
2021/12/20 10:52:47;;;;;;;7.57;3.90;;;;;;;;;;5053891;28;20600;-65
2021/12/20 10:55:31;;;;;;;8.10;3.83;;;;;;;;;;5053674;28;20200;-64
2021/12/20 10:58:15;;;;;;;4.50;3.43;;;;;;;;;;5053597;28;20571;-64
2021/12/20 11:00:41;;;;;;;4.50;3.80;;;;;;;;;;5053256;28;20196;-64
2021/12/20 11:03:24;;;;;;;5.27;3.77;;;;;;;;;;5052335;28;20728;-64
2021/12/20 11:11:21;;;;;;;8.43;4.23;;;;;;;;;;5053178;28;20195;-64
2021/12/20 11:13:47;;;;;;;8.67;3.90;;;;;;;;;;5053265;28;20287;-64
2021/12/20 11:16:27;;;;;;;8.60;4.00;;;;;;;;;;5053103;28;20197;-64
2021/12/20 11:19:10;;;;;;;7.17;3.90;;;;;;;;;;5053124;28;20219;-64
2021/12/20 11:21:38;;;;;;;7.17;3.93;;;;;;;;;;5053021;28;20224;-64
2021/12/20 11:24:04;;;;;;;6.60;3.60;;;;;;;;;;5052901;28;20662;-64
2021/12/20 11:26:31;;;;;;;6.73;4.07;;;;;;;;;;5053156;28;20196;-64
2021/12/20 11:28:57;;;;;;;5.00;3.60;;;;;;;;;;5052335;28;20187;-64
2021/12/20 11:31:23;;;;;;;5.67;3.77;;;;;;;;;;5052985;28;20227;-65
2021/12/20 11:33:50;;;;;;;8.17;4.53;;;;;;;;;;5052854;28;20713;-64
2021/12/20 11:36:16;;;;;;;7.93;4.27;;;;;;;;;;5052985;28;20199;-65
2021/12/20 11:38:43;;;;;;;9.27;3.87;;;;;;;;;;5052703;28;20295;-64
2021/12/20 11:41:09;;;;;;;7.07;4.10;;;;;;;;;;5052593;28;20695;-64
2021/12/20 11:43:35;;;;;;;6.67;4.20;;;;;;;;;;5052743;28;20210;-64
2021/12/20 11:46:01;;;;;;;8.53;3.90;;;;;;;;;;5052607;28;20211;-64
2021/12/20 11:48:29;;;;;;;7.47;4.17;;;;;;;;;;5052523;28;20197;-65
2021/12/20 11:50:55;;;;;;;6.97;3.37;;;;;;;;;;5052470;28;20230;-66
2021/12/20 11:53:21;;;;;;;7.00;3.97;;;;;;;;;;5052610;28;20205;-64
2021/12/20 11:55:50;;;;;;;8.73;4.40;;;;;;;;;;5052497;28;20207;-63
2021/12/20 11:58:17;;;;;;;7.20;4.07;;;;;;;;;;5052440;28;20200;-64
2021/12/20 12:00:48;;;;;;;6.60;4.23;;;;;;;;;;5052292;28;20242;-64
2021/12/20 12:03:18;;;;;;;5.90;3.67;;;;;;;;;;5052406;28;20204;-64
2021/12/20 12:05:48;;;;;;;7.77;3.90;;;;;;;;;;5052431;28;20295;-64
2021/12/20 12:08:25;;;;;;;6.07;3.27;;;;;;;;;;5052297;28;20216;-64
2021/12/20 12:10:52;;;;;;;8.47;3.97;;;;;;;;;;5052060;28;20242;-63
2021/12/20 12:13:19;;;;;;;8.40;3.60;;;;;;;;;;5052191;28;20205;-64
2021/12/20 12:15:52;;;;;;;7.27;3.80;;;;;;;;;;5052270;28;20283;-63
2021/12/20 12:18:19;;;;;;;8.53;4.10;;;;;;;;;;5052212;28;20264;-63
2021/12/20 12:20:48;;;;;;;7.33;3.53;;;;;;;;;;5052096;28;20200;-64
2021/12/20 12:23:18;;;;;;;9.70;3.90;;;;;;;;;;5052008;28;20227;-64
2021/12/20 12:25:45;;;;;;;7.87;3.97;;;;;;;;;;5052137;28;20201;-65
2021/12/20 12:28:13;;;;;;;9.23;3.60;;;;;;;;;;5051695;28;20202;-64
2021/12/20 12:30:40;;;;;;;5.33;3.10;;;;;;;;;;5051984;28;20574;-64
2021/12/20 12:33:19;;;;;;;5.53;3.43;;;;;;;;;;5052008;28;20291;-64
2021/12/20 12:35:50;;;;;;;5.90;3.40;;;;;;;;;;5052166;28;20199;-64
2021/12/20 12:38:17;;;;;;;6.57;3.33;;;;;;;;;;5051936;28;20203;-64
2021/12/20 12:40:45;;;;;;;6.43;3.30;;;;;;;;;;5053373;28;20195;-64
2021/12/20 12:43:15;;;;;;;6.43;3.40;;;;;;;;;;5056143;28;20205;-62
2021/12/20 12:45:50;;;;;;;6.13;3.47;;;;;;;;;;5056014;28;20208;-63
2021/12/20 12:48:35;;;;;;;7.00;3.33;;;;;;;;;;5055908;28;20278;-63
2021/12/20 12:51:04;;;;;;;8.83;3.23;;;;;;;;;;5052032;28;20379;-64
2021/12/20 12:53:40;;;;;;;7.00;2.53;;;;;;;;;;5054076;28;20211;-63
2021/12/20 12:56:35;;;;;;;5.43;2.80;;;;;;;;;;5051507;28;20349;-65
2021/12/20 12:59:19;;;;;;;5.57;3.50;;;;;;;;;;5021340;28;20211;-65
2021/12/20 13:01:51;;;;;;;10.37;7.47;;;;;;;;;;5055992;28;20560;-65
2021/12/20 13:04:17;;;;;;;6.23;2.93;;;;;;;;;;5055660;28;20215;-64
2021/12/20 13:06:43;;;;;;;6.27;3.13;;;;;;;;;;5055578;28;20244;-64
2021/12/20 13:09:09;;;;;;;7.37;3.00;;;;;;;;;;5053673;28;20188;-64
2021/12/20 13:11:35;;;;;;;5.50;2.57;;;;;;;;;;5051922;28;20302;-67
2021/12/20 13:14:08;;;;;;;7.53;3.17;;;;;;;;;;5054408;28;20208;-65
2021/12/20 13:16:36;;;;;;;8.23;3.33;;;;;;;;;;5054520;28;20310;-66
2021/12/20 13:19:05;;;;;;;6.90;2.77;;;;;;;;;;5055243;28;20204;-66
2021/12/20 13:21:49;;;;;;;8.47;3.07;;;;;;;;;;5055316;28;20631;-66
2021/12/20 13:24:16;;;;;;;9.10;3.70;;;;;;;;;;5055113;28;20203;-69
2021/12/20 13:26:42;;;;;;;8.53;3.17;;;;;;;;;;5055098;28;20211;-68
2021/12/20 13:29:15;;;;;;;8.00;2.97;;;;;;;;;;5054977;28;20238;-69
2021/12/20 13:31:40;;;;;;;6.17;2.93;;;;;;;;;;5055123;28;20215;-68
2021/12/20 13:34:11;;;;;;;7.40;3.50;;;;;;;;;;5054800;28;20204;-70
2021/12/20 13:36:38;;;;;;;4.60;2.90;;;;;;;;;;5054961;28;20212;-69
2021/12/20 13:39:06;;;;;;;6.90;3.30;;;;;;;;;;5054709;28;20587;-66
2021/12/20 13:41:32;;;;;;;7.87;4.10;;;;;;;;;;5054714;28;20238;-68
2021/12/20 13:44:01;;;;;;;17.00;13.07;;;;;;;;;;5054528;28;20283;-68
2021/12/20 13:46:30;;;;;;;8.80;3.90;;;;;;;;;;5053843;28;20255;-69
2021/12/20 13:49:01;;;;;;;7.93;3.20;;;;;;;;;;5053622;28;20258;-69
2021/12/20 13:51:32;;;;;;;5.20;3.20;;;;;;;;;;5051107;28;20188;-68
2021/12/20 13:53:59;;;;;;;5.03;3.07;;;;;;;;;;5052634;28;20208;-69
2021/12/20 13:56:26;;;;;;;6.13;3.27;;;;;;;;;;5054265;28;20192;-69
2021/12/20 13:58:54;;;;;;;6.10;3.27;;;;;;;;;;5054188;28;20262;-69
2021/12/20 14:01:24;;;;;;;5.90;3.40;;;;;;;;;;5053851;28;20231;-69
2021/12/20 14:03:50;;;;;;;6.23;3.57;;;;;;;;;;5054085;28;20211;-70
2021/12/20 14:06:38;;;;;;;7.10;3.37;;;;;;;;;;5053904;28;20223;-69
2021/12/20 14:09:07;;;;;;;7.40;3.00;;;;;;;;;;5053811;28;20283;-68
2021/12/20 14:11:33;;;;;;;6.30;2.83;;;;;;;;;;5053627;28;20284;-69
2021/12/20 14:14:07;;;;;;;4.70;3.00;;;;;;;;;;5053662;28;20280;-70
2021/12/20 14:16:49;;;;;;;7.07;3.17;;;;;;;;;;5053807;28;20214;-68
2021/12/20 14:19:14;;;;;;;7.77;3.43;;;;;;;;;;5052364;28;20581;-69
2021/12/20 14:21:42;;;;;;;19.37;13.80;;;;;;;;;;5052593;28;20231;-70
2021/12/20 14:24:08;;;;;;;12.03;7.17;;;;;;;;;;5053813;28;20295;-70
2021/12/20 14:26:37;;;;;;;9.80;3.90;;;;;;;;;;5053696;28;20236;-70
2021/12/20 14:29:05;;;;;;;8.50;3.27;;;;;;;;;;5053918;28;20196;-72
2021/12/20 14:31:37;;;;;;;5.50;3.13;;;;;;;;;;5053983;28;20200;-70
2021/12/20 14:34:04;;;;;;;6.60;3.23;;;;;;;;;;5053211;28;20207;-70
2021/12/20 14:36:33;;;;;;;5.57;2.80;;;;;;;;;;5053675;28;20215;-69
2021/12/20 14:39:08;;;;;;;6.33;3.50;;;;;;;;;;5053346;28;20742;-71
2021/12/20 14:41:37;;;;;;;7.37;3.50;;;;;;;;;;5053461;28;20234;-71
2021/12/20 14:44:06;;;;;;;8.50;4.13;;;;;;;;;;5053316;28;20679;-71
2021/12/20 14:46:40;;;;;;;7.20;4.03;;;;;;;;;;5053346;28;20834;-70
2021/12/20 14:49:19;;;;;;;6.33;3.63;;;;;;;;;;5053252;28;20200;-68
2021/12/20 14:51:45;;;;;;;5.03;3.63;;;;;;;;;;5053269;28;20199;-69
2021/12/20 14:54:17;;;;;;;10.63;3.30;;;;;;;;;;5052389;28;20695;-68
2021/12/20 14:56:47;;;;;;;8.30;3.50;;;;;;;;;;5052121;28;20288;-69
2021/12/20 14:59:13;;;;;;;7.83;3.70;;;;;;;;;;5052628;28;20667;-69